createdAt,value
2023-05-10T00:10:12.733Z,17.50
2023-05-10T00:20:36.026Z,17.40
2023-05-10T00:30:59.806Z,17.40
2023-05-10T00:41:23.153Z,17.00
2023-05-10T00:51:45.908Z,16.80
2023-05-10T01:02:09.407Z,16.60
2023-05-10T01:12:31.684Z,16.50
2023-05-10T01:23:24.285Z,16.50
2023-05-10T01:33:53.451Z,16.40
2023-05-10T01:44:20.324Z,16.20
2023-05-10T01:54:57.976Z,16.00
2023-05-10T02:05:23.736Z,16.10
2023-05-10T02:15:50.165Z,16.00
2023-05-10T02:26:14.451Z,15.90
2023-05-10T02:36:40.707Z,15.70
2023-05-10T02:47:02.554Z,15.60
2023-05-10T02:57:29.565Z,15.60
2023-05-10T03:07:51.969Z,15.40
2023-05-10T03:18:19.604Z,15.30
2023-05-10T03:28:42.952Z,15.40
2023-05-10T03:39:06.303Z,15.50
2023-05-10T03:49:29.144Z,15.90
2023-05-10T03:59:52.929Z,15.80
2023-05-10T04:10:17.531Z,16.10
2023-05-10T04:20:40.992Z,16.40
2023-05-10T04:31:03.832Z,16.70
2023-05-10T04:41:27.210Z,16.80
2023-05-10T04:51:48.804Z,17.00
2023-05-10T05:02:11.714Z,17.40
2023-05-10T05:12:33.145Z,17.70
2023-05-10T05:22:56.023Z,18.20
2023-05-10T05:33:17.646Z,18.90
2023-05-10T05:43:40.974Z,19.20
2023-05-10T05:54:04.509Z,19.80
2023-05-10T06:04:27.964Z,20.40
2023-05-10T06:14:49.734Z,20.40
2023-05-10T06:25:12.770Z,20.90
2023-05-10T06:35:34.454Z,21.20
2023-05-10T06:45:57.548Z,21.40
2023-05-10T06:56:19.735Z,21.60
2023-05-10T07:06:42.963Z,22.10
2023-05-10T07:17:04.462Z,22.20
2023-05-10T07:27:27.936Z,22.60
2023-05-10T07:37:52.479Z,23.20
2023-05-10T07:48:15.549Z,22.70
2023-05-10T07:58:37.129Z,23.70
2023-05-10T08:08:59.926Z,24.30
2023-05-10T08:19:22.445Z,24.10
2023-05-10T08:29:50.203Z,23.80
2023-05-10T08:40:13.784Z,24.40
2023-05-10T08:50:38.386Z,24.10
2023-05-10T09:01:01.458Z,24.90
2023-05-10T09:11:25.915Z,25.30
2023-05-10T09:21:47.833Z,24.90
2023-05-10T09:32:11.199Z,26.90
2023-05-10T09:42:32.673Z,26.50
2023-05-10T09:52:59.288Z,26.40
2023-05-10T10:03:22.494Z,26.40
2023-05-10T10:13:46.620Z,27.40
2023-05-10T10:24:08.384Z,27.50
2023-05-10T10:34:33.056Z,27.20
2023-05-10T10:45:14.556Z,27.90
2023-05-10T10:55:49.619Z,27.40
2023-05-10T11:06:11.367Z,28.60
2023-05-10T11:16:43.743Z,27.90
2023-05-10T11:27:08.946Z,28.70
2023-05-10T11:37:35.140Z,28.90
2023-05-10T11:47:58.349Z,30.40
2023-05-10T11:58:23.663Z,28.30
2023-05-10T12:08:47.790Z,29.10
2023-05-10T12:19:11.480Z,30.00
2023-05-10T12:29:33.725Z,29.50
2023-05-10T12:39:58.070Z,28.70
2023-05-10T12:50:19.632Z,29.80
2023-05-10T13:01:33.377Z,30.80
2023-05-10T13:12:08.800Z,31.40
2023-05-10T13:22:40.278Z,29.60
2023-05-10T13:33:06.312Z,30.70
2023-05-10T13:43:32.371Z,30.20
2023-05-10T13:53:58.213Z,30.60
2023-05-10T14:04:21.373Z,30.80
2023-05-10T14:14:44.466Z,30.40
2023-05-10T14:25:09.993Z,30.20
2023-05-10T14:35:33.461Z,30.40
2023-05-10T14:45:55.291Z,30.20
2023-05-10T14:56:21.857Z,30.20
2023-05-10T15:06:43.572Z,30.00
2023-05-10T15:17:10.787Z,28.70
2023-05-10T15:27:32.677Z,29.00
2023-05-10T15:37:57.590Z,28.20
2023-05-10T15:48:19.325Z,28.50
2023-05-10T15:58:44.079Z,28.90
2023-05-10T16:09:08.575Z,27.70
2023-05-10T16:19:31.811Z,27.90
2023-05-10T16:29:53.631Z,26.50
2023-05-10T16:40:17.033Z,25.90
2023-05-10T16:50:38.676Z,25.80
2023-05-10T17:01:01.780Z,25.30
2023-05-10T17:11:23.288Z,24.90
2023-05-10T17:21:46.742Z,25.30
2023-05-10T17:32:09.410Z,24.90
2023-05-10T17:43:03.879Z,24.50
2023-05-10T17:53:53.950Z,24.20
2023-05-10T18:04:30.060Z,23.70
2023-05-10T18:15:42.747Z,23.40
2023-05-10T18:26:31.944Z,23.10
2023-05-10T18:37:37.258Z,22.80
2023-05-10T18:48:33.270Z,22.70
2023-05-10T18:59:21.973Z,22.40
2023-05-10T19:10:12.268Z,22.10
2023-05-10T19:21:12.478Z,21.80
2023-05-10T19:31:58.140Z,21.20
2023-05-10T19:42:57.494Z,21.20
2023-05-10T19:53:46.730Z,20.50
2023-05-10T20:04:29.358Z,20.00
2023-05-10T20:15:12.061Z,19.80
2023-05-10T20:25:53.096Z,19.50
2023-05-10T20:36:53.751Z,19.40
2023-05-10T20:47:25.499Z,19.10
2023-05-10T20:58:26.816Z,19.00
2023-05-10T21:09:04.816Z,18.60
2023-05-10T21:19:36.686Z,18.40
2023-05-10T21:41:33.914Z,18.00
2023-05-10T21:52:17.583Z,18.10
2023-05-10T22:02:59.333Z,18.00
2023-05-10T22:13:52.466Z,17.80
2023-05-10T22:24:16.044Z,17.80
2023-05-10T22:34:37.387Z,17.60
2023-05-10T22:45:00.896Z,17.50
2023-05-10T22:55:23.133Z,17.40
2023-05-10T23:05:46.266Z,17.20
2023-05-10T23:16:09.341Z,17.20
2023-05-10T23:26:32.155Z,16.90
2023-05-10T23:36:53.775Z,16.90
2023-05-10T23:47:17.031Z,16.70
2023-05-10T23:57:40.634Z,16.50
